sensor_id;sensor_type;location;lat;lon;timestamp;temperature;humidity
53643;DHT22;39546;45.534;12.048;2023-03-01T00:01:23;8.50;81.00
53643;DHT22;39546;45.534;12.048;2023-03-01T00:07:25;8.50;80.60
53643;DHT22;39546;45.534;12.048;2023-03-01T00:13:28;8.40;80.40
53643;DHT22;39546;45.534;12.048;2023-03-01T00:19:30;8.40;80.00
53643;DHT22;39546;45.534;12.048;2023-03-01T00:25:41;8.20;80.40
53643;DHT22;39546;45.534;12.048;2023-03-01T00:31:43;8.10;80.50
53643;DHT22;39546;45.534;12.048;2023-03-01T00:37:45;8.10;80.30
53643;DHT22;39546;45.534;12.048;2023-03-01T00:43:48;8.10;80.40
53643;DHT22;39546;45.534;12.048;2023-03-01T00:49:51;7.90;80.50
53643;DHT22;39546;45.534;12.048;2023-03-01T00:55:53;7.90;80.20
53643;DHT22;39546;45.534;12.048;2023-03-01T01:01:55;8.00;79.90
53643;DHT22;39546;45.534;12.048;2023-03-01T01:07:57;7.90;80.20
53643;DHT22;39546;45.534;12.048;2023-03-01T01:13:59;7.80;80.90
53643;DHT22;39546;45.534;12.048;2023-03-01T01:20:01;7.90;81.40
53643;DHT22;39546;45.534;12.048;2023-03-01T01:26:13;7.70;81.60
53643;DHT22;39546;45.534;12.048;2023-03-01T01:32:16;7.80;81.70
53643;DHT22;39546;45.534;12.048;2023-03-01T01:38:18;7.90;81.70
53643;DHT22;39546;45.534;12.048;2023-03-01T01:44:25;7.90;81.50
53643;DHT22;39546;45.534;12.048;2023-03-01T01:50:28;7.90;82.00
53643;DHT22;39546;45.534;12.048;2023-03-01T01:56:44;8.00;82.10
53643;DHT22;39546;45.534;12.048;2023-03-01T02:02:52;7.90;82.00
53643;DHT22;39546;45.534;12.048;2023-03-01T02:09:03;7.80;82.40
53643;DHT22;39546;45.534;12.048;2023-03-01T02:15:27;7.90;82.60
53643;DHT22;39546;45.534;12.048;2023-03-01T02:34:05;7.80;83.10
53643;DHT22;39546;45.534;12.048;2023-03-01T02:40:15;7.80;83.00
53643;DHT22;39546;45.534;12.048;2023-03-01T02:46:21;7.80;83.20
53643;DHT22;39546;45.534;12.048;2023-03-01T02:52:47;7.70;83.10
53643;DHT22;39546;45.534;12.048;2023-03-01T02:58:51;7.80;83.20
53643;DHT22;39546;45.534;12.048;2023-03-01T03:04:54;7.80;83.50
53643;DHT22;39546;45.534;12.048;2023-03-01T03:10:56;7.90;83.60
53643;DHT22;39546;45.534;12.048;2023-03-01T03:16:58;7.80;83.80
53643;DHT22;39546;45.534;12.048;2023-03-01T03:23:00;7.90;83.50
53643;DHT22;39546;45.534;12.048;2023-03-01T03:29:02;7.90;83.40
53643;DHT22;39546;45.534;12.048;2023-03-01T03:35:06;7.90;83.30
53643;DHT22;39546;45.534;12.048;2023-03-01T03:41:25;7.90;82.80
53643;DHT22;39546;45.534;12.048;2023-03-01T03:47:26;7.80;82.40
53643;DHT22;39546;45.534;12.048;2023-03-01T03:53:32;7.70;82.60
53643;DHT22;39546;45.534;12.048;2023-03-01T03:59:34;7.70;82.80
53643;DHT22;39546;45.534;12.048;2023-03-01T04:05:37;7.70;82.90
53643;DHT22;39546;45.534;12.048;2023-03-01T04:11:39;7.70;83.00
53643;DHT22;39546;45.534;12.048;2023-03-01T04:17:43;7.70;83.00
53643;DHT22;39546;45.534;12.048;2023-03-01T04:23:45;7.70;83.20
53643;DHT22;39546;45.534;12.048;2023-03-01T04:29:47;7.70;83.20
53643;DHT22;39546;45.534;12.048;2023-03-01T04:35:49;7.90;83.20
53643;DHT22;39546;45.534;12.048;2023-03-01T04:41:51;7.90;83.20
53643;DHT22;39546;45.534;12.048;2023-03-01T04:48:13;8.00;83.10
53643;DHT22;39546;45.534;12.048;2023-03-01T04:54:21;8.20;83.10
53643;DHT22;39546;45.534;12.048;2023-03-01T05:00:23;8.30;83.20
53643;DHT22;39546;45.534;12.048;2023-03-01T05:06:25;8.40;82.80
53643;DHT22;39546;45.534;12.048;2023-03-01T05:12:27;8.50;82.80
53643;DHT22;39546;45.534;12.048;2023-03-01T05:18:32;8.60;83.20
53643;DHT22;39546;45.534;12.048;2023-03-01T05:24:35;8.50;83.00
53643;DHT22;39546;45.534;12.048;2023-03-01T05:30:37;8.60;83.40
53643;DHT22;39546;45.534;12.048;2023-03-01T05:36:40;8.60;83.60
53643;DHT22;39546;45.534;12.048;2023-03-01T05:42:47;8.80;83.40
53643;DHT22;39546;45.534;12.048;2023-03-01T05:49:00;9.00;83.20
53643;DHT22;39546;45.534;12.048;2023-03-01T05:55:19;9.00;84.40
53643;DHT22;39546;45.534;12.048;2023-03-01T06:01:27;9.10;84.50
53643;DHT22;39546;45.534;12.048;2023-03-01T06:07:29;9.20;84.90
53643;DHT22;39546;45.534;12.048;2023-03-01T06:13:31;9.10;84.60
53643;DHT22;39546;45.534;12.048;2023-03-01T06:19:33;9.10;85.00
53643;DHT22;39546;45.534;12.048;2023-03-01T06:25:35;8.90;85.20
53643;DHT22;39546;45.534;12.048;2023-03-01T06:31:37;9.00;85.60
53643;DHT22;39546;45.534;12.048;2023-03-01T06:37:40;9.20;85.60
53643;DHT22;39546;45.534;12.048;2023-03-01T06:43:42;9.30;85.60
53643;DHT22;39546;45.534;12.048;2023-03-01T06:49:44;9.50;85.90
53643;DHT22;39546;45.534;12.048;2023-03-01T06:55:46;9.50;85.40
53643;DHT22;39546;45.534;12.048;2023-03-01T07:01:48;9.30;85.90
53643;DHT22;39546;45.534;12.048;2023-03-01T07:07:50;9.50;85.80
53643;DHT22;39546;45.534;12.048;2023-03-01T07:13:52;9.50;85.80
53643;DHT22;39546;45.534;12.048;2023-03-01T07:19:54;9.70;86.00
53643;DHT22;39546;45.534;12.048;2023-03-01T07:25:56;9.70;85.80
53643;DHT22;39546;45.534;12.048;2023-03-01T07:31:58;9.70;86.20
53643;DHT22;39546;45.534;12.048;2023-03-01T07:38:00;9.50;85.00
53643;DHT22;39546;45.534;12.048;2023-03-01T07:44:03;9.40;85.30
53643;DHT22;39546;45.534;12.048;2023-03-01T07:50:05;9.50;85.70
53643;DHT22;39546;45.534;12.048;2023-03-01T07:56:10;9.70;86.00
53643;DHT22;39546;45.534;12.048;2023-03-01T08:02:12;9.80;85.70
53643;DHT22;39546;45.534;12.048;2023-03-01T08:08:14;9.70;84.90
53643;DHT22;39546;45.534;12.048;2023-03-01T08:14:16;9.90;86.30
53643;DHT22;39546;45.534;12.048;2023-03-01T08:20:18;10.20;86.60
53643;DHT22;39546;45.534;12.048;2023-03-01T08:26:21;10.40;86.40
53643;DHT22;39546;45.534;12.048;2023-03-01T08:32:43;10.50;85.80
53643;DHT22;39546;45.534;12.048;2023-03-01T08:38:45;10.30;85.70
53643;DHT22;39546;45.534;12.048;2023-03-01T08:44:47;10.20;85.60
53643;DHT22;39546;45.534;12.048;2023-03-01T08:50:49;10.20;85.20
53643;DHT22;39546;45.534;12.048;2023-03-01T08:57:20;10.30;84.20
53643;DHT22;39546;45.534;12.048;2023-03-01T09:03:23;10.40;83.90
53643;DHT22;39546;45.534;12.048;2023-03-01T09:09:25;10.90;85.00
53643;DHT22;39546;45.534;12.048;2023-03-01T09:15:27;11.20;84.10
53643;DHT22;39546;45.534;12.048;2023-03-01T09:21:42;11.20;83.50
53643;DHT22;39546;45.534;12.048;2023-03-01T09:27:54;11.10;84.40
53643;DHT22;39546;45.534;12.048;2023-03-01T09:33:56;11.30;85.50
53643;DHT22;39546;45.534;12.048;2023-03-01T09:39:58;11.30;84.00
53643;DHT22;39546;45.534;12.048;2023-03-01T09:46:05;11.20;83.50
53643;DHT22;39546;45.534;12.048;2023-03-01T10:05:18;11.40;79.80
53643;DHT22;39546;45.534;12.048;2023-03-01T10:11:37;11.40;79.30
53643;DHT22;39546;45.534;12.048;2023-03-01T10:23:46;11.40;79.10
53643;DHT22;39546;45.534;12.048;2023-03-01T10:29:59;11.30;80.20
53643;DHT22;39546;45.534;12.048;2023-03-01T10:36:05;11.30;78.60
53643;DHT22;39546;45.534;12.048;2023-03-01T10:42:26;11.20;75.60
53643;DHT22;39546;45.534;12.048;2023-03-01T10:48:29;11.20;77.80
53643;DHT22;39546;45.534;12.048;2023-03-01T10:54:32;11.10;74.60
53643;DHT22;39546;45.534;12.048;2023-03-01T11:07:10;10.80;72.40
53643;DHT22;39546;45.534;12.048;2023-03-01T11:13:19;10.90;72.70
53643;DHT22;39546;45.534;12.048;2023-03-01T11:19:22;10.70;74.00
53643;DHT22;39546;45.534;12.048;2023-03-01T11:25:32;10.60;72.60
53643;DHT22;39546;45.534;12.048;2023-03-01T11:31:36;10.50;73.70
53643;DHT22;39546;45.534;12.048;2023-03-01T12:02:51;10.60;74.90
53643;DHT22;39546;45.534;12.048;2023-03-01T12:22:01;10.70;75.90
53643;DHT22;39546;45.534;12.048;2023-03-01T12:53:49;10.50;73.70
53643;DHT22;39546;45.534;12.048;2023-03-01T13:00:24;10.50;74.20
53643;DHT22;39546;45.534;12.048;2023-03-01T13:07:07;10.50;74.30
53643;DHT22;39546;45.534;12.048;2023-03-01T13:13:19;10.50;73.00
53643;DHT22;39546;45.534;12.048;2023-03-01T13:19:23;10.50;75.20
53643;DHT22;39546;45.534;12.048;2023-03-01T13:25:26;10.60;75.90
53643;DHT22;39546;45.534;12.048;2023-03-01T13:37:36;10.70;77.60
53643;DHT22;39546;45.534;12.048;2023-03-01T13:43:42;10.70;76.70
53643;DHT22;39546;45.534;12.048;2023-03-01T13:49:51;10.70;76.90
53643;DHT22;39546;45.534;12.048;2023-03-01T13:56:12;10.60;76.30
53643;DHT22;39546;45.534;12.048;2023-03-01T14:02:15;10.60;76.30
53643;DHT22;39546;45.534;12.048;2023-03-01T14:08:24;10.70;76.20
53643;DHT22;39546;45.534;12.048;2023-03-01T14:20:41;10.90;78.20
53643;DHT22;39546;45.534;12.048;2023-03-01T14:26:43;11.30;79.30
53643;DHT22;39546;45.534;12.048;2023-03-01T14:32:54;11.70;79.70
53643;DHT22;39546;45.534;12.048;2023-03-01T14:38:56;11.70;81.50
53643;DHT22;39546;45.534;12.048;2023-03-01T14:45:07;11.70;81.60
53643;DHT22;39546;45.534;12.048;2023-03-01T14:51:12;11.80;81.80
53643;DHT22;39546;45.534;12.048;2023-03-01T14:57:24;11.90;81.70
53643;DHT22;39546;45.534;12.048;2023-03-01T15:03:36;11.90;81.90
53643;DHT22;39546;45.534;12.048;2023-03-01T15:09:41;11.70;80.30
53643;DHT22;39546;45.534;12.048;2023-03-01T15:15:44;11.70;80.40
53643;DHT22;39546;45.534;12.048;2023-03-01T15:21:49;11.70;78.30
53643;DHT22;39546;45.534;12.048;2023-03-01T15:27:53;11.50;78.80
53643;DHT22;39546;45.534;12.048;2023-03-01T15:34:23;11.50;79.10
53643;DHT22;39546;45.534;12.048;2023-03-01T15:40:27;11.20;78.40
53643;DHT22;39546;45.534;12.048;2023-03-01T15:46:35;11.00;76.00
53643;DHT22;39546;45.534;12.048;2023-03-01T15:52:50;10.80;77.50
53643;DHT22;39546;45.534;12.048;2023-03-01T15:58:57;10.70;78.10
53643;DHT22;39546;45.534;12.048;2023-03-01T16:05:00;10.70;78.50
53643;DHT22;39546;45.534;12.048;2023-03-01T16:11:02;10.50;77.30
53643;DHT22;39546;45.534;12.048;2023-03-01T16:17:06;10.20;78.00
53643;DHT22;39546;45.534;12.048;2023-03-01T16:23:11;9.80;78.70
53643;DHT22;39546;45.534;12.048;2023-03-01T16:29:35;9.60;80.60
53643;DHT22;39546;45.534;12.048;2023-03-01T16:35:42;9.70;81.40
53643;DHT22;39546;45.534;12.048;2023-03-01T16:41:46;9.80;82.50
53643;DHT22;39546;45.534;12.048;2023-03-01T16:47:48;10.10;82.90
53643;DHT22;39546;45.534;12.048;2023-03-01T16:53:50;10.20;82.70
53643;DHT22;39546;45.534;12.048;2023-03-01T16:59:52;10.30;83.20
53643;DHT22;39546;45.534;12.048;2023-03-01T17:05:55;10.70;83.40
53643;DHT22;39546;45.534;12.048;2023-03-01T17:12:19;10.60;83.40
53643;DHT22;39546;45.534;12.048;2023-03-01T17:18:24;10.60;83.60
53643;DHT22;39546;45.534;12.048;2023-03-01T17:24:26;10.40;82.10
53643;DHT22;39546;45.534;12.048;2023-03-01T17:30:28;10.10;81.40
53643;DHT22;39546;45.534;12.048;2023-03-01T17:36:31;9.70;81.20
53643;DHT22;39546;45.534;12.048;2023-03-01T17:42:47;9.50;81.40
53643;DHT22;39546;45.534;12.048;2023-03-01T17:48:49;9.30;81.60
53643;DHT22;39546;45.534;12.048;2023-03-01T17:54:51;9.30;82.70
53643;DHT22;39546;45.534;12.048;2023-03-01T18:00:53;9.30;82.80
53643;DHT22;39546;45.534;12.048;2023-03-01T18:06:56;9.50;84.00
53643;DHT22;39546;45.534;12.048;2023-03-01T18:12:59;9.50;84.00
53643;DHT22;39546;45.534;12.048;2023-03-01T18:19:01;9.60;84.30
53643;DHT22;39546;45.534;12.048;2023-03-01T18:25:05;9.70;84.90
53643;DHT22;39546;45.534;12.048;2023-03-01T18:31:09;9.60;84.30
53643;DHT22;39546;45.534;12.048;2023-03-01T18:37:16;9.60;85.20
53643;DHT22;39546;45.534;12.048;2023-03-01T18:43:19;9.70;85.30
53643;DHT22;39546;45.534;12.048;2023-03-01T18:49:21;9.60;84.70
53643;DHT22;39546;45.534;12.048;2023-03-01T18:55:23;9.60;85.70
53643;DHT22;39546;45.534;12.048;2023-03-01T19:01:27;9.70;85.60
53643;DHT22;39546;45.534;12.048;2023-03-01T19:07:30;9.70;85.70
53643;DHT22;39546;45.534;12.048;2023-03-01T19:13:34;10.00;86.20
53643;DHT22;39546;45.534;12.048;2023-03-01T19:19:38;10.00;86.20
53643;DHT22;39546;45.534;12.048;2023-03-01T19:25:40;9.80;85.50
53643;DHT22;39546;45.534;12.048;2023-03-01T19:31:42;9.70;86.20
53643;DHT22;39546;45.534;12.048;2023-03-01T19:37:44;9.70;85.90
53643;DHT22;39546;45.534;12.048;2023-03-01T19:43:47;9.60;85.70
53643;DHT22;39546;45.534;12.048;2023-03-01T19:49:55;9.60;85.70
53643;DHT22;39546;45.534;12.048;2023-03-01T19:56:02;9.40;85.50
53643;DHT22;39546;45.534;12.048;2023-03-01T20:02:04;9.30;85.60
53643;DHT22;39546;45.534;12.048;2023-03-01T20:08:08;9.30;85.30
53643;DHT22;39546;45.534;12.048;2023-03-01T20:14:11;9.30;85.10
53643;DHT22;39546;45.534;12.048;2023-03-01T20:20:13;9.20;84.50
53643;DHT22;39546;45.534;12.048;2023-03-01T20:26:16;9.20;85.00
53643;DHT22;39546;45.534;12.048;2023-03-01T20:32:21;9.20;84.60
53643;DHT22;39546;45.534;12.048;2023-03-01T20:38:23;9.30;85.50
53643;DHT22;39546;45.534;12.048;2023-03-01T20:44:27;9.30;86.00
53643;DHT22;39546;45.534;12.048;2023-03-01T20:50:29;9.30;84.80
53643;DHT22;39546;45.534;12.048;2023-03-01T20:56:31;9.30;85.10
53643;DHT22;39546;45.534;12.048;2023-03-01T21:02:40;9.30;85.50
53643;DHT22;39546;45.534;12.048;2023-03-01T21:08:42;9.30;85.60
53643;DHT22;39546;45.534;12.048;2023-03-01T21:14:44;9.40;86.00
53643;DHT22;39546;45.534;12.048;2023-03-01T21:20:48;9.40;86.10
53643;DHT22;39546;45.534;12.048;2023-03-01T21:26:50;9.50;86.80
53643;DHT22;39546;45.534;12.048;2023-03-01T21:32:52;9.70;86.80
53643;DHT22;39546;45.534;12.048;2023-03-01T21:38:55;9.70;86.80
53643;DHT22;39546;45.534;12.048;2023-03-01T21:44:57;9.90;87.00
53643;DHT22;39546;45.534;12.048;2023-03-01T21:51:00;9.80;86.60
53643;DHT22;39546;45.534;12.048;2023-03-01T21:57:03;9.90;86.70
53643;DHT22;39546;45.534;12.048;2023-03-01T22:03:04;9.90;86.70
53643;DHT22;39546;45.534;12.048;2023-03-01T22:15:24;10.20;87.00
53643;DHT22;39546;45.534;12.048;2023-03-01T22:21:27;10.20;86.70
53643;DHT22;39546;45.534;12.048;2023-03-01T22:27:30;10.20;86.90
53643;DHT22;39546;45.534;12.048;2023-03-01T22:33:32;10.30;87.00
53643;DHT22;39546;45.534;12.048;2023-03-01T22:39:35;10.40;86.80
53643;DHT22;39546;45.534;12.048;2023-03-01T22:45:37;10.40;86.90
53643;DHT22;39546;45.534;12.048;2023-03-01T22:51:41;10.30;87.20
53643;DHT22;39546;45.534;12.048;2023-03-01T22:57:44;10.40;87.20
53643;DHT22;39546;45.534;12.048;2023-03-01T23:03:47;10.30;87.10
53643;DHT22;39546;45.534;12.048;2023-03-01T23:09:49;10.30;87.20
53643;DHT22;39546;45.534;12.048;2023-03-01T23:15:53;10.20;87.10
53643;DHT22;39546;45.534;12.048;2023-03-01T23:21:56;10.30;87.20
53643;DHT22;39546;45.534;12.048;2023-03-01T23:27:58;10.30;87.10
53643;DHT22;39546;45.534;12.048;2023-03-01T23:34:00;10.30;86.90
53643;DHT22;39546;45.534;12.048;2023-03-01T23:40:04;10.40;87.00
53643;DHT22;39546;45.534;12.048;2023-03-01T23:46:07;10.50;86.80
53643;DHT22;39546;45.534;12.048;2023-03-01T23:52:12;10.50;86.80
53643;DHT22;39546;45.534;12.048;2023-03-01T23:58:14;10.40;86.40
